createdAt,value
2022-10-20T00:01:35.987Z,13.00
2022-10-20T00:04:04.800Z,13.60
2022-10-20T00:06:33.667Z,16.00
2022-10-20T00:09:09.131Z,16.60
2022-10-20T00:11:39.674Z,14.60
2022-10-20T00:14:11.572Z,14.30
2022-10-20T00:16:40.437Z,13.30
2022-10-20T00:19:09.549Z,15.60
2022-10-20T00:21:38.377Z,17.80
2022-10-20T00:24:07.037Z,16.00
2022-10-20T00:26:35.889Z,16.60
2022-10-20T00:29:04.876Z,13.40
2022-10-20T00:31:34.002Z,15.30
2022-10-20T00:34:02.643Z,18.10
2022-10-20T00:36:32.003Z,14.50
2022-10-20T00:39:02.234Z,18.40
2022-10-20T00:41:31.710Z,15.30
2022-10-20T00:44:02.010Z,15.90
2022-10-20T00:46:39.490Z,20.30
2022-10-20T00:49:14.031Z,17.60
2022-10-20T00:51:48.135Z,16.80
2022-10-20T00:54:20.676Z,17.90
2022-10-20T00:56:50.930Z,18.70
2022-10-20T00:59:25.562Z,20.90
2022-10-20T01:01:54.738Z,18.20
2022-10-20T01:04:24.665Z,18.00
2022-10-20T01:06:54.253Z,19.90
2022-10-20T01:09:25.366Z,18.20
2022-10-20T01:12:03.601Z,16.10
2022-10-20T01:14:43.149Z,22.60
2022-10-20T01:17:23.657Z,17.00
2022-10-20T01:20:27.287Z,19.40
2022-10-20T01:23:27.737Z,23.70
2022-10-20T01:26:26.303Z,23.50
2022-10-20T01:29:00.176Z,19.60
2022-10-20T01:31:34.475Z,17.60
2022-10-20T01:34:10.193Z,18.00
2022-10-20T01:36:47.507Z,16.90
2022-10-20T01:39:23.785Z,16.90
2022-10-20T01:41:58.564Z,23.80
2022-10-20T01:44:32.129Z,28.50
2022-10-20T01:47:02.655Z,22.70
2022-10-20T01:49:31.617Z,110.20
2022-10-20T01:52:03.519Z,166.40
2022-10-20T01:54:32.116Z,150.20
2022-10-20T01:57:18.303Z,116.90
2022-10-20T02:00:01.542Z,112.30
2022-10-20T02:02:50.184Z,265.30
2022-10-20T02:05:40.037Z,168.30
2022-10-20T02:08:16.240Z,156.40
2022-10-20T02:10:48.257Z,261.40
2022-10-20T02:13:20.483Z,122.80
2022-10-20T02:15:52.968Z,128.30
2022-10-20T02:18:25.909Z,171.60
2022-10-20T02:20:57.320Z,248.90
2022-10-20T02:23:26.551Z,164.00
2022-10-20T02:26:01.290Z,316.30
2022-10-20T02:28:36.123Z,432.40
2022-10-20T02:31:08.083Z,130.60
2022-10-20T02:33:37.292Z,180.40
2022-10-20T02:36:11.939Z,148.50
2022-10-20T02:38:40.488Z,92.40
2022-10-20T02:41:09.125Z,221.00
2022-10-20T02:43:38.241Z,161.70
2022-10-20T02:46:07.221Z,224.50
2022-10-20T02:48:37.761Z,152.70
2022-10-20T02:51:06.616Z,128.90
2022-10-20T02:53:37.727Z,245.70
2022-10-20T02:56:07.278Z,147.60
2022-10-20T02:58:36.474Z,173.50
2022-10-20T03:01:05.485Z,180.10
2022-10-20T03:03:34.124Z,165.60
2022-10-20T03:06:09.740Z,138.80
2022-10-20T03:08:38.909Z,149.00
2022-10-20T03:11:10.219Z,110.90
2022-10-20T03:13:38.941Z,181.40
2022-10-20T03:16:08.703Z,101.40
2022-10-20T03:18:39.335Z,140.50
2022-10-20T03:21:08.498Z,83.00
2022-10-20T03:23:37.078Z,116.60
2022-10-20T03:26:08.391Z,144.50
2022-10-20T03:28:36.998Z,142.00
2022-10-20T03:31:06.686Z,141.80
2022-10-20T03:33:35.808Z,99.20
2022-10-20T03:36:05.642Z,129.20
2022-10-20T03:38:34.658Z,198.70
2022-10-20T03:41:03.851Z,203.70
2022-10-20T03:43:32.744Z,104.50
2022-10-20T03:46:06.782Z,272.60
2022-10-20T03:48:36.082Z,420.80
2022-10-20T03:53:49.198Z,238.20
2022-10-20T03:56:19.877Z,136.10
2022-10-20T03:58:50.646Z,243.50
2022-10-20T04:01:23.698Z,168.20
2022-10-20T04:03:52.495Z,146.70
2022-10-20T04:06:23.377Z,89.40
2022-10-20T04:08:54.691Z,89.30
2022-10-20T04:11:23.729Z,198.70
2022-10-20T04:13:52.390Z,101.10
2022-10-20T04:16:21.020Z,82.20
2022-10-20T04:18:51.262Z,213.70
2022-10-20T04:21:19.921Z,102.10
2022-10-20T04:23:48.564Z,237.10
2022-10-20T04:26:17.285Z,109.10
2022-10-20T04:28:45.862Z,126.50
2022-10-20T04:31:14.472Z,91.60
2022-10-20T04:33:46.015Z,94.40
2022-10-20T04:36:14.820Z,126.70
2022-10-20T04:38:43.761Z,88.30
2022-10-20T04:41:12.464Z,85.30
2022-10-20T04:43:41.099Z,96.10
2022-10-20T04:46:11.295Z,149.00
2022-10-20T04:48:43.427Z,105.00
2022-10-20T04:51:15.326Z,183.80
2022-10-20T04:53:44.502Z,122.50
2022-10-20T04:56:17.757Z,99.10
2022-10-20T04:58:51.118Z,92.80
2022-10-20T05:01:25.407Z,90.50
2022-10-20T05:03:54.231Z,93.70
2022-10-20T05:06:24.938Z,93.30
2022-10-20T05:08:55.459Z,119.70
2022-10-20T05:11:26.575Z,75.30
2022-10-20T05:13:55.790Z,96.60
2022-10-20T05:16:27.905Z,52.90
2022-10-20T05:18:57.550Z,53.70
2022-10-20T05:21:28.529Z,58.80
2022-10-20T05:23:58.646Z,53.50
2022-10-20T05:26:31.894Z,72.00
2022-10-20T05:29:01.968Z,68.40
2022-10-20T05:31:30.643Z,109.40
2022-10-20T05:33:59.279Z,93.40
2022-10-20T05:36:28.923Z,97.90
2022-10-20T05:38:57.567Z,95.00
2022-10-20T05:41:28.524Z,99.00
2022-10-20T05:43:59.068Z,86.00
2022-10-20T05:46:29.314Z,95.30
2022-10-20T05:48:59.708Z,178.20
2022-10-20T05:51:30.416Z,144.40
2022-10-20T05:54:02.533Z,113.60
2022-10-20T05:56:33.010Z,122.80
2022-10-20T05:59:01.631Z,93.80
2022-10-20T06:01:39.560Z,91.40
2022-10-20T06:04:08.435Z,121.10
2022-10-20T06:06:37.300Z,144.50
2022-10-20T06:09:07.823Z,146.90
2022-10-20T06:11:39.478Z,339.00
2022-10-20T06:14:09.174Z,632.20
2022-10-20T06:16:37.874Z,351.50
2022-10-20T06:19:06.682Z,248.60
2022-10-20T06:21:37.353Z,208.50
2022-10-20T06:24:07.328Z,161.60
2022-10-20T06:26:40.155Z,135.80
2022-10-20T06:29:12.060Z,91.10
2022-10-20T06:31:43.940Z,93.10
2022-10-20T06:34:15.884Z,55.00
2022-10-20T06:36:45.475Z,53.10
2022-10-20T06:39:16.837Z,32.80
2022-10-20T06:41:50.039Z,44.80
2022-10-20T06:44:23.095Z,41.40
2022-10-20T06:46:52.039Z,39.60
2022-10-20T06:49:21.066Z,42.20
2022-10-20T06:51:50.127Z,28.50
2022-10-20T06:54:18.858Z,25.70
2022-10-20T06:56:47.884Z,18.70
2022-10-20T06:59:16.752Z,19.50
2022-10-20T07:01:45.364Z,19.50
2022-10-20T07:04:15.598Z,20.00
2022-10-20T07:06:46.095Z,22.30
2022-10-20T08:35:49.036Z,16.40
2022-10-20T08:38:21.030Z,22.00
2022-10-20T08:40:53.090Z,18.50
2022-10-20T08:43:26.409Z,17.80
2022-10-20T08:45:58.692Z,17.40
2022-10-20T08:48:33.807Z,18.00
2022-10-20T08:51:06.216Z,19.10
2022-10-20T08:53:41.329Z,14.70
2022-10-20T08:56:15.320Z,15.80
2022-10-20T08:58:47.920Z,15.10
2022-10-20T09:01:24.437Z,15.20
2022-10-20T09:03:59.830Z,14.80
2022-10-20T09:06:32.323Z,12.60
2022-10-20T09:09:05.023Z,12.70
2022-10-20T09:11:41.272Z,13.20
2022-10-20T09:14:14.016Z,11.10
2022-10-20T09:16:59.890Z,12.00
2022-10-20T09:19:33.703Z,13.90
2022-10-20T09:22:08.321Z,12.50
2022-10-20T09:24:42.896Z,18.10
2022-10-20T09:27:31.146Z,14.10
2022-10-20T09:30:17.399Z,12.00
2022-10-20T09:32:50.686Z,6.90
2022-10-20T09:35:31.805Z,9.20
2022-10-20T09:38:19.965Z,8.30
2022-10-20T09:41:08.215Z,9.50
2022-10-20T09:43:49.032Z,8.10
2022-10-20T09:46:25.568Z,8.90
2022-10-20T09:49:01.022Z,115.40
2022-10-20T09:51:34.080Z,34.10
2022-10-20T09:54:09.077Z,11.30
2022-10-20T09:56:43.241Z,12.50
2022-10-20T09:59:26.364Z,11.50
2022-10-20T10:02:01.358Z,7.00
2022-10-20T10:04:37.008Z,5.30
2022-10-20T10:07:33.082Z,5.70
2022-10-20T10:10:08.756Z,7.00
2022-10-20T10:12:41.098Z,8.10
2022-10-20T10:15:32.564Z,5.70
2022-10-20T10:18:16.141Z,4.80
2022-10-20T10:20:48.541Z,13.00
2022-10-20T10:23:23.936Z,7.20
2022-10-20T10:25:59.333Z,4.80
2022-10-20T10:28:38.588Z,5.30
2022-10-20T10:31:25.201Z,4.60
2022-10-20T10:34:23.862Z,5.20
2022-10-20T10:36:56.557Z,4.20
2022-10-20T10:39:30.354Z,2.60
2022-10-20T10:42:17.192Z,8.30
2022-10-20T10:45:00.801Z,6.00
2022-10-20T10:48:02.210Z,3.30
2022-10-20T10:50:42.558Z,3.90
2022-10-20T10:53:29.930Z,5.70
2022-10-20T10:56:14.146Z,4.50
2022-10-20T10:58:52.927Z,4.70
2022-10-20T11:02:02.999Z,5.40
2022-10-20T11:05:05.310Z,4.30
2022-10-20T11:07:44.150Z,4.40
2022-10-20T11:10:23.872Z,8.80
2022-10-20T11:13:13.932Z,4.80
2022-10-20T11:15:59.788Z,4.70
2022-10-20T11:18:52.445Z,5.20
2022-10-20T11:21:33.990Z,5.30
2022-10-20T11:24:17.819Z,5.60
2022-10-20T11:26:54.539Z,2.10
2022-10-20T11:29:37.588Z,3.50
2022-10-20T11:32:19.208Z,3.10
2022-10-20T11:35:02.182Z,7.40
2022-10-20T11:37:39.886Z,15.20
2022-10-20T11:40:23.432Z,6.50
2022-10-20T11:43:02.314Z,4.90
2022-10-20T11:45:44.130Z,2.40
2022-10-20T11:48:24.069Z,3.40
2022-10-20T11:51:11.491Z,3.20
2022-10-20T11:54:05.434Z,3.40
2022-10-20T11:56:54.769Z,3.70
2022-10-20T11:59:48.165Z,4.10
2022-10-20T12:03:08.794Z,2.40
2022-10-20T12:06:04.147Z,4.40
2022-10-20T12:08:54.833Z,4.60
2022-10-20T12:11:33.036Z,3.90
2022-10-20T12:14:17.595Z,3.20
2022-10-20T12:17:27.294Z,3.10
2022-10-20T12:20:30.050Z,4.00
2022-10-20T12:23:03.046Z,3.10
2022-10-20T12:25:42.287Z,4.20
2022-10-20T12:28:35.284Z,3.20
2022-10-20T12:31:08.455Z,2.60
2022-10-20T12:34:03.848Z,3.70
2022-10-20T12:36:37.685Z,4.20
2022-10-20T12:39:22.511Z,6.40
2022-10-20T12:42:05.227Z,4.60
2022-10-20T12:44:45.108Z,3.10
2022-10-20T12:47:29.980Z,4.60
2022-10-20T12:50:06.300Z,3.70
2022-10-20T12:52:41.721Z,4.40
2022-10-20T12:55:23.477Z,3.00
2022-10-20T12:58:13.317Z,4.20
2022-10-20T13:01:07.880Z,5.00
2022-10-20T13:03:47.023Z,4.50
2022-10-20T13:10:49.403Z,4.30
2022-10-20T13:14:03.865Z,5.20
2022-10-20T13:16:37.559Z,3.90
2022-10-20T13:19:15.091Z,4.30
2022-10-20T13:21:49.625Z,5.70
2022-10-20T13:24:27.793Z,3.50
2022-10-20T13:27:05.393Z,3.60
2022-10-20T13:29:43.236Z,3.20
2022-10-20T13:32:23.510Z,4.50
2022-10-20T13:35:00.087Z,3.20
2022-10-20T13:37:53.760Z,2.70
2022-10-20T13:40:37.383Z,4.20
2022-10-20T13:43:28.520Z,5.10
2022-10-20T13:46:19.354Z,4.00
2022-10-20T13:49:11.257Z,3.30
2022-10-20T13:51:48.404Z,4.10
2022-10-20T13:54:28.702Z,4.70
2022-10-20T13:57:02.966Z,4.00
2022-10-20T13:59:58.327Z,2.80
2022-10-20T14:02:35.734Z,3.80
2022-10-20T14:05:15.061Z,3.10
2022-10-20T14:07:47.536Z,3.20
2022-10-20T14:29:56.462Z,4.60
2022-10-20T14:43:40.006Z,5.10
2022-10-20T14:46:15.454Z,6.50
2022-10-20T14:48:51.789Z,4.20
2022-10-20T14:51:39.788Z,6.50
2022-10-20T14:54:27.049Z,2.90
2022-10-20T14:57:00.728Z,5.10
2022-10-20T14:59:35.055Z,5.90
2022-10-20T15:02:12.598Z,3.60
2022-10-20T15:04:46.154Z,4.80
2022-10-20T15:07:20.856Z,4.90
2022-10-20T15:10:02.928Z,4.80
2022-10-20T15:12:43.677Z,4.80
2022-10-20T15:15:27.373Z,5.40
2022-10-20T15:18:19.154Z,4.90
2022-10-20T15:20:51.889Z,6.40
2022-10-20T15:23:26.021Z,6.60
2022-10-20T15:26:02.884Z,6.00
2022-10-20T15:28:42.132Z,8.60
2022-10-20T15:31:23.596Z,8.10
2022-10-20T15:33:57.636Z,8.40
2022-10-20T15:36:33.369Z,11.10
2022-10-20T15:39:06.601Z,8.90
2022-10-20T15:41:39.557Z,6.60
2022-10-20T15:44:17.006Z,12.30
2022-10-20T15:46:50.095Z,10.90
2022-10-20T15:49:23.964Z,20.30
2022-10-20T15:51:56.111Z,25.80
2022-10-20T15:54:28.228Z,16.90
2022-10-20T15:57:01.416Z,20.90
2022-10-20T15:59:33.549Z,21.40
2022-10-20T16:02:08.301Z,18.50
2022-10-20T16:04:40.450Z,20.40
2022-10-20T16:07:12.515Z,18.40
2022-10-20T16:13:39.493Z,25.60
2022-10-20T16:16:17.502Z,361.70
2022-10-20T16:18:49.741Z,290.20
2022-10-20T16:21:21.807Z,406.30
2022-10-20T16:23:54.076Z,293.80
2022-10-20T16:30:39.679Z,264.80
2022-10-20T16:33:12.418Z,336.30
2022-10-20T16:35:55.046Z,134.00
2022-10-20T16:38:44.077Z,69.60
2022-10-20T16:41:20.883Z,33.90
2022-10-20T16:44:00.919Z,25.70
2022-10-20T16:46:51.543Z,17.10
2022-10-20T16:49:40.283Z,15.00
2022-10-20T16:52:26.330Z,18.70
2022-10-20T16:54:58.353Z,20.20
2022-10-20T16:57:38.392Z,20.80
2022-10-20T17:00:16.213Z,23.10
2022-10-20T17:02:57.821Z,39.70
2022-10-20T17:05:30.321Z,42.10
2022-10-20T17:08:02.879Z,62.70
2022-10-20T18:00:22.904Z,16.40
2022-10-20T18:03:06.281Z,16.80
2022-10-20T18:05:39.694Z,17.10
2022-10-20T18:08:11.708Z,17.10
2022-10-20T18:21:28.362Z,15.80
2022-10-20T18:24:02.606Z,14.00
2022-10-20T18:26:36.534Z,17.20
2022-10-20T18:29:10.368Z,13.50
2022-10-20T18:31:44.905Z,15.20
2022-10-20T18:34:20.613Z,16.70
2022-10-20T18:36:56.734Z,17.60
2022-10-20T18:39:29.037Z,19.20
2022-10-20T18:42:01.767Z,18.00
2022-10-20T18:49:09.249Z,25.60
2022-10-20T18:54:34.785Z,19.20
2022-10-20T18:57:06.963Z,16.60
2022-10-20T18:59:39.062Z,14.80
2022-10-20T19:02:13.276Z,14.60
2022-10-20T19:04:45.388Z,16.30
2022-10-20T19:07:18.037Z,17.70
2022-10-20T19:09:54.815Z,20.50
2022-10-20T19:12:28.026Z,18.90
2022-10-20T19:15:00.043Z,17.50
2022-10-20T19:17:35.136Z,15.20
2022-10-20T19:20:08.215Z,16.00
2022-10-20T19:22:40.585Z,15.50
2022-10-20T19:25:13.157Z,18.40
2022-10-20T19:27:45.164Z,19.40
2022-10-20T19:30:17.396Z,20.30
2022-10-20T19:32:52.328Z,18.60
2022-10-20T19:35:24.799Z,19.60
2022-10-20T19:37:56.925Z,20.00
2022-10-20T19:40:29.063Z,17.80
2022-10-20T19:43:01.076Z,16.70
2022-10-20T19:45:33.514Z,16.60
2022-10-20T19:48:06.368Z,17.80
2022-10-20T19:50:38.512Z,15.40
2022-10-20T19:53:10.473Z,15.60
2022-10-20T19:55:42.493Z,17.70
2022-10-20T19:58:14.638Z,22.70
2022-10-20T20:00:47.963Z,29.60
2022-10-20T20:03:20.368Z,19.70
2022-10-20T20:05:59.679Z,18.00
2022-10-20T20:08:31.866Z,17.70
2022-10-20T20:11:05.322Z,19.30
2022-10-20T20:13:39.483Z,16.70
2022-10-20T20:16:11.722Z,17.10
2022-10-20T20:18:43.857Z,18.00
2022-10-20T20:21:15.984Z,19.20
2022-10-20T20:23:59.485Z,17.70
2022-10-20T20:26:37.899Z,19.10
2022-10-20T20:29:10.724Z,17.40
2022-10-20T20:31:43.229Z,16.70
2022-10-20T20:34:15.374Z,15.70
2022-10-20T20:36:47.524Z,15.70
2022-10-20T20:39:19.637Z,17.70
2022-10-20T20:41:51.630Z,16.00
2022-10-20T20:47:03.113Z,15.90
2022-10-20T20:49:35.174Z,16.50
2022-10-20T20:52:07.813Z,15.90
2022-10-20T20:54:39.829Z,15.60
2022-10-20T20:57:11.923Z,15.00
2022-10-20T20:59:44.669Z,16.70
2022-10-20T21:02:17.035Z,16.70
2022-10-20T21:04:49.089Z,16.10
2022-10-20T21:07:21.490Z,17.20
2022-10-20T21:29:20.733Z,16.10
2022-10-20T21:43:17.647Z,14.30
2022-10-20T23:49:58.895Z,13.00
